createdAt,value
2022-11-05T00:02:01.059Z,2.35
2022-11-05T00:04:47.303Z,1.27
2022-11-05T00:07:34.441Z,2.38
2022-11-05T00:10:04.483Z,1.50
2022-11-05T00:13:07.797Z,1.63
2022-11-05T00:15:54.112Z,0.93
2022-11-05T00:18:21.531Z,1.77
2022-11-05T00:20:49.240Z,0.95
2022-11-05T00:23:35.254Z,1.25
2022-11-05T00:26:07.517Z,2.33
2022-11-05T00:28:35.947Z,4.20
2022-11-05T00:31:09.851Z,2.80
2022-11-05T00:33:38.251Z,1.45
2022-11-05T00:36:06.423Z,4.30
2022-11-05T00:38:34.556Z,1.07
2022-11-05T00:41:02.103Z,1.95
2022-11-05T00:43:48.231Z,1.98
2022-11-05T00:46:15.923Z,1.63
2022-11-05T00:49:01.885Z,3.13
2022-11-05T00:51:29.558Z,1.83
2022-11-05T00:53:56.996Z,1.95
2022-11-05T00:56:24.581Z,1.95
2022-11-05T00:58:51.989Z,1.65
2022-11-05T01:01:19.566Z,3.80
2022-11-05T01:03:51.528Z,1.03
2022-11-05T01:06:19.769Z,1.30
2022-11-05T01:08:47.287Z,0.52
2022-11-05T01:11:34.471Z,1.63
2022-11-05T01:14:13.119Z,0.80
2022-11-05T01:16:40.971Z,0.87
2022-11-05T01:19:09.237Z,0.98
2022-11-05T01:21:36.929Z,0.70
2022-11-05T01:24:04.641Z,1.27
2022-11-05T01:26:32.126Z,1.63
2022-11-05T01:29:02.470Z,2.47
2022-11-05T01:31:30.200Z,1.88
2022-11-05T01:33:57.582Z,2.90
2022-11-05T01:36:25.137Z,1.15
2022-11-05T01:38:52.635Z,4.40
2022-11-05T01:41:20.036Z,2.33
2022-11-05T01:43:55.283Z,2.40
2022-11-05T01:46:36.841Z,0.90
2022-11-05T01:49:22.416Z,2.35
2022-11-05T01:51:51.480Z,1.17
2022-11-05T01:54:19.901Z,1.07
2022-11-05T01:56:50.582Z,4.30
2022-11-05T01:59:26.381Z,2.42
2022-11-05T02:01:54.145Z,2.25
2022-11-05T02:04:33.639Z,1.33
2022-11-05T02:07:01.230Z,0.70
2022-11-05T02:09:35.213Z,1.67
2022-11-05T02:12:02.988Z,1.75
2022-11-05T02:14:30.415Z,1.98
2022-11-05T02:17:16.930Z,2.42
2022-11-05T02:19:53.583Z,1.20
2022-11-05T02:22:39.561Z,1.52
2022-11-05T02:25:30.009Z,1.88
2022-11-05T02:28:18.284Z,3.22
2022-11-05T02:30:47.874Z,1.33
2022-11-05T02:33:24.260Z,2.50
2022-11-05T02:35:59.262Z,1.92
2022-11-05T02:38:44.914Z,1.52
2022-11-05T02:41:12.425Z,5.18
2022-11-05T02:44:17.455Z,1.35
2022-11-05T02:47:00.660Z,1.80
2022-11-05T02:49:46.764Z,2.05
2022-11-05T02:52:33.534Z,2.25
2022-11-05T02:55:27.606Z,1.25
2022-11-05T02:57:55.310Z,1.73
2022-11-05T03:00:43.430Z,1.10
2022-11-05T03:03:18.367Z,1.98
2022-11-05T03:06:13.829Z,2.75
2022-11-05T03:08:59.875Z,1.85
2022-11-05T03:11:29.116Z,2.42
2022-11-05T03:14:20.342Z,1.30
2022-11-05T03:17:18.420Z,2.55
2022-11-05T03:20:11.424Z,2.42
2022-11-05T03:22:41.812Z,2.72
2022-11-05T03:25:12.906Z,2.03
2022-11-05T03:27:42.368Z,3.90
2022-11-05T03:30:10.743Z,1.50
2022-11-05T03:32:41.049Z,2.55
2022-11-05T03:35:12.875Z,2.72
2022-11-05T03:37:41.574Z,2.92
2022-11-05T03:40:09.721Z,2.70
2022-11-05T03:42:38.072Z,1.20
2022-11-05T03:45:11.666Z,1.05
2022-11-05T03:47:40.401Z,2.30
2022-11-05T03:50:13.302Z,2.45
2022-11-05T03:52:44.556Z,1.70
2022-11-05T03:55:12.059Z,3.92
2022-11-05T03:57:41.008Z,2.78
2022-11-05T04:00:09.588Z,1.50
2022-11-05T04:02:39.324Z,2.78
2022-11-05T04:05:07.058Z,1.80
2022-11-05T04:07:52.952Z,1.48
2022-11-05T04:10:39.106Z,2.78
2022-11-05T04:13:24.727Z,1.60
2022-11-05T04:16:14.706Z,1.40
2022-11-05T04:18:42.552Z,2.77
2022-11-05T04:21:28.465Z,1.52
2022-11-05T04:24:08.562Z,2.75
2022-11-05T04:26:43.894Z,3.50
2022-11-05T04:29:29.924Z,3.22
2022-11-05T04:31:57.850Z,2.43
2022-11-05T04:34:25.455Z,1.80
2022-11-05T04:36:53.469Z,3.25
2022-11-05T04:39:21.123Z,1.88
2022-11-05T04:41:48.979Z,2.75
2022-11-05T04:44:16.783Z,1.87
2022-11-05T04:46:44.356Z,4.95
2022-11-05T04:49:11.993Z,2.92
2022-11-05T04:51:39.552Z,2.58
2022-11-05T04:54:07.275Z,4.07
2022-11-05T04:56:34.693Z,3.57
2022-11-05T04:59:02.011Z,5.18
2022-11-05T05:01:29.720Z,5.55
2022-11-05T05:03:57.283Z,4.57
2022-11-05T05:06:25.031Z,4.00
2022-11-05T05:08:52.538Z,3.70
2022-11-05T05:11:21.038Z,4.72
2022-11-05T05:13:48.670Z,3.15
2022-11-05T05:16:23.964Z,2.47
2022-11-05T05:18:51.601Z,3.20
2022-11-05T05:21:38.528Z,3.70
2022-11-05T05:24:09.139Z,2.33
2022-11-05T05:26:41.768Z,3.05
2022-11-05T05:29:09.413Z,3.40
2022-11-05T05:31:37.180Z,1.92
2022-11-05T05:34:05.596Z,2.53
2022-11-05T05:36:33.148Z,3.28
2022-11-05T05:39:00.716Z,4.22
2022-11-05T05:41:28.095Z,6.25
2022-11-05T05:43:55.838Z,2.88
2022-11-05T05:46:23.330Z,3.30
2022-11-05T05:48:51.571Z,3.22
2022-11-05T05:51:19.196Z,4.25
2022-11-05T05:53:46.763Z,4.28
2022-11-05T05:56:19.506Z,5.43
2022-11-05T05:58:47.513Z,2.77
2022-11-05T06:01:19.207Z,3.90
2022-11-05T06:03:48.140Z,3.05
2022-11-05T06:06:19.833Z,3.05
2022-11-05T06:08:47.915Z,6.88
2022-11-05T06:11:15.423Z,3.27
2022-11-05T06:13:42.887Z,2.83
2022-11-05T06:16:10.326Z,7.22
2022-11-05T06:18:38.201Z,3.70
2022-11-05T06:21:07.361Z,3.85
2022-11-05T06:23:35.604Z,4.30
2022-11-05T06:26:07.739Z,3.08
2022-11-05T06:28:35.263Z,4.00
2022-11-05T06:31:02.751Z,2.83
2022-11-05T06:33:30.355Z,5.03
2022-11-05T06:36:01.800Z,3.53
2022-11-05T06:38:31.059Z,3.35
2022-11-05T06:40:59.600Z,2.80
2022-11-05T06:43:30.480Z,3.67
2022-11-05T06:45:58.436Z,5.10
2022-11-05T06:48:25.824Z,3.30
2022-11-05T06:50:53.659Z,3.08
2022-11-05T06:53:21.101Z,3.90
2022-11-05T06:55:49.071Z,2.90
2022-11-05T06:58:16.427Z,6.00
2022-11-05T07:00:44.034Z,2.13
2022-11-05T07:03:12.076Z,3.00
2022-11-05T07:05:45.725Z,4.38
2022-11-05T07:08:13.637Z,3.88
2022-11-05T07:10:41.423Z,6.00
2022-11-05T07:13:09.305Z,2.83
2022-11-05T07:15:37.217Z,3.10
2022-11-05T07:18:05.440Z,4.32
2022-11-05T07:20:34.525Z,4.97
2022-11-05T07:23:02.867Z,3.47
2022-11-05T07:25:31.229Z,3.40
2022-11-05T07:27:58.946Z,4.38
2022-11-05T07:30:27.021Z,4.85
2022-11-05T07:32:54.906Z,6.85
2022-11-05T07:35:22.613Z,4.47
2022-11-05T07:37:50.942Z,3.43
2022-11-05T07:40:19.460Z,4.55
2022-11-05T07:42:55.026Z,3.53
2022-11-05T07:45:22.845Z,4.43
2022-11-05T07:47:58.052Z,2.95
2022-11-05T07:50:27.595Z,3.40
2022-11-05T07:53:00.452Z,4.60
2022-11-05T07:55:28.384Z,5.05
2022-11-05T07:57:56.051Z,6.47
2022-11-05T08:00:24.153Z,5.50
2022-11-05T08:03:05.601Z,7.60
2022-11-05T08:05:39.373Z,5.75
2022-11-05T08:08:07.943Z,7.25
2022-11-05T08:10:35.862Z,3.55
2022-11-05T08:13:03.326Z,3.22
2022-11-05T08:15:30.975Z,5.53
2022-11-05T08:18:05.131Z,4.00
2022-11-05T08:20:32.922Z,5.78
2022-11-05T08:23:00.369Z,5.60
2022-11-05T08:25:27.872Z,3.97
2022-11-05T08:28:05.598Z,7.37
2022-11-05T08:30:33.215Z,6.13
2022-11-05T08:33:05.179Z,6.13
2022-11-05T08:35:37.574Z,6.22
2022-11-05T08:38:06.302Z,5.28
2022-11-05T08:40:36.482Z,5.63
2022-11-05T08:43:04.944Z,3.00
2022-11-05T08:45:32.825Z,6.57
2022-11-05T08:48:08.335Z,3.13
2022-11-05T08:50:36.471Z,4.82
2022-11-05T08:53:05.301Z,5.33
2022-11-05T08:55:33.448Z,5.68
2022-11-05T08:58:02.438Z,3.80
2022-11-05T09:00:31.863Z,2.67
2022-11-05T09:03:01.029Z,5.53
2022-11-05T09:05:29.160Z,4.33
2022-11-05T09:08:00.983Z,4.18
2022-11-05T09:10:29.002Z,6.63
2022-11-05T09:12:56.446Z,4.25
2022-11-05T09:15:24.559Z,3.83
2022-11-05T09:17:52.010Z,5.07
2022-11-05T09:20:19.886Z,8.50
2022-11-05T09:22:47.577Z,6.72
2022-11-05T09:25:16.182Z,4.40
2022-11-05T09:27:43.946Z,3.28
2022-11-05T09:30:12.634Z,4.27
2022-11-05T09:32:40.032Z,4.47
2022-11-05T09:35:08.245Z,4.22
2022-11-05T09:37:36.664Z,4.65
2022-11-05T09:40:04.533Z,6.53
2022-11-05T09:42:38.054Z,4.33
2022-11-05T09:45:10.675Z,5.82
2022-11-05T09:47:43.284Z,8.10
2022-11-05T09:50:20.687Z,2.38
2022-11-05T09:52:48.341Z,3.92
2022-11-05T09:55:43.213Z,3.47
2022-11-05T09:58:26.010Z,5.15
2022-11-05T10:00:56.481Z,4.53
2022-11-05T10:03:24.325Z,6.07
2022-11-05T10:05:52.122Z,5.97
2022-11-05T10:08:23.486Z,2.83
2022-11-05T10:11:05.853Z,3.78
2022-11-05T10:13:42.294Z,5.50
2022-11-05T10:16:16.006Z,5.38
2022-11-05T10:18:45.042Z,6.10
2022-11-05T10:21:17.118Z,5.23
2022-11-05T10:23:45.433Z,3.58
2022-11-05T10:26:15.157Z,3.97
2022-11-05T10:28:42.622Z,5.28
2022-11-05T10:31:12.783Z,4.70
2022-11-05T10:33:45.659Z,3.67
2022-11-05T10:36:21.404Z,3.40
2022-11-05T10:38:49.009Z,5.15
2022-11-05T10:41:28.575Z,5.75
2022-11-05T10:44:11.522Z,5.88
2022-11-05T10:46:54.560Z,4.93
2022-11-05T10:49:44.047Z,4.53
2022-11-05T10:52:26.029Z,4.38
2022-11-05T10:54:55.329Z,4.82
2022-11-05T10:57:36.303Z,6.10
2022-11-05T11:00:16.434Z,7.07
2022-11-05T11:02:52.130Z,6.07
2022-11-05T11:05:31.315Z,9.15
2022-11-05T11:08:09.299Z,6.10
2022-11-05T11:10:41.256Z,6.95
2022-11-05T11:13:23.461Z,7.47
2022-11-05T11:15:51.428Z,5.93
2022-11-05T11:18:40.323Z,7.53
2022-11-05T11:21:17.338Z,7.43
2022-11-05T11:23:44.915Z,6.35
2022-11-05T11:26:12.216Z,6.77
2022-11-05T11:28:50.459Z,5.53
2022-11-05T11:31:21.709Z,6.38
2022-11-05T11:33:52.161Z,4.63
2022-11-05T11:36:20.501Z,6.05
2022-11-05T11:38:47.968Z,5.90
2022-11-05T11:41:35.326Z,5.22
2022-11-05T11:44:07.112Z,4.68
2022-11-05T11:46:34.958Z,4.07
2022-11-05T11:49:02.512Z,6.55
2022-11-05T11:51:45.682Z,3.93
2022-11-05T11:54:21.564Z,6.78
2022-11-05T11:56:49.051Z,5.63
2022-11-05T11:59:53.784Z,4.78
2022-11-05T12:02:33.511Z,5.38
2022-11-05T12:05:29.323Z,5.23
2022-11-05T12:07:58.398Z,4.85
2022-11-05T12:10:34.178Z,5.32
2022-11-05T12:13:20.814Z,4.65
2022-11-05T12:16:05.563Z,5.93
2022-11-05T12:18:39.179Z,6.63
2022-11-05T12:21:52.598Z,5.00
2022-11-05T12:24:21.245Z,5.95
2022-11-05T12:27:09.886Z,5.40
2022-11-05T12:29:55.555Z,3.08
2022-11-05T12:32:22.992Z,5.70
2022-11-05T12:34:56.390Z,4.78
2022-11-05T12:37:34.232Z,4.97
2022-11-05T12:40:20.436Z,4.97
2022-11-05T12:43:01.141Z,4.57
2022-11-05T12:45:42.275Z,4.40
2022-11-05T12:48:37.253Z,4.75
2022-11-05T12:51:11.379Z,6.28
2022-11-05T12:54:04.713Z,7.15
2022-11-05T12:56:34.466Z,5.15
2022-11-05T12:59:11.564Z,5.10
2022-11-05T13:01:42.667Z,4.28
2022-11-05T13:04:57.113Z,5.70
2022-11-05T13:07:35.691Z,4.40
2022-11-05T13:10:21.226Z,4.72
2022-11-05T13:12:56.136Z,7.57
2022-11-05T13:15:29.378Z,5.28
2022-11-05T13:18:03.498Z,4.68
2022-11-05T13:20:37.046Z,4.95
2022-11-05T13:23:31.527Z,5.60
2022-11-05T13:26:25.368Z,4.60
2022-11-05T13:29:01.950Z,6.05
2022-11-05T13:31:38.008Z,8.25
2022-11-05T13:34:09.812Z,4.30
2022-11-05T13:37:05.885Z,5.68
2022-11-05T13:39:42.371Z,5.80
2022-11-05T13:42:22.136Z,5.38
2022-11-05T13:45:22.043Z,7.43
2022-11-05T13:48:26.839Z,5.28
2022-11-05T13:51:07.550Z,6.82
2022-11-05T13:53:46.020Z,5.77
2022-11-05T13:56:41.372Z,7.28
2022-11-05T13:59:20.817Z,5.80
2022-11-05T14:01:55.313Z,6.82
2022-11-05T14:04:27.373Z,5.85
2022-11-05T14:06:55.086Z,7.60
2022-11-05T14:09:25.911Z,4.85
2022-11-05T14:11:57.245Z,6.00
2022-11-05T14:14:27.078Z,6.30
2022-11-05T14:17:09.971Z,5.68
2022-11-05T14:19:49.967Z,5.20
2022-11-05T14:22:33.157Z,5.68
2022-11-05T14:25:01.704Z,6.05
2022-11-05T14:27:29.635Z,7.20
2022-11-05T14:29:57.465Z,7.60
2022-11-05T14:32:44.879Z,6.67
2022-11-05T14:35:15.567Z,5.85
2022-11-05T14:37:43.080Z,10.15
2022-11-05T14:40:22.989Z,7.13
2022-11-05T14:42:55.162Z,6.40
2022-11-05T14:45:28.886Z,6.73
2022-11-05T14:48:01.548Z,6.65
2022-11-05T14:50:42.333Z,6.57
2022-11-05T14:53:31.598Z,8.30
2022-11-05T14:56:04.701Z,5.80
2022-11-05T14:58:34.107Z,6.17
2022-11-05T15:01:03.604Z,4.57
2022-11-05T15:03:45.811Z,5.28
2022-11-05T15:06:32.360Z,5.55
2022-11-05T15:09:19.844Z,6.55
2022-11-05T15:11:56.673Z,6.63
2022-11-05T15:14:58.950Z,5.22
2022-11-05T15:17:41.093Z,7.95
2022-11-05T15:20:10.863Z,6.05
2022-11-05T15:22:41.310Z,5.55
2022-11-05T15:25:17.868Z,4.60
2022-11-05T15:28:07.141Z,4.75
2022-11-05T15:30:34.780Z,4.57
2022-11-05T15:33:10.389Z,5.57
2022-11-05T15:35:39.606Z,6.10
2022-11-05T15:38:25.107Z,7.60
2022-11-05T15:41:06.176Z,5.85
2022-11-05T15:43:33.720Z,6.45
2022-11-05T15:46:13.767Z,7.85
2022-11-05T15:48:41.592Z,5.18
2022-11-05T15:51:09.260Z,6.03
2022-11-05T15:53:56.559Z,5.95
2022-11-05T15:56:39.950Z,6.43
2022-11-05T15:59:16.365Z,5.90
2022-11-05T16:02:05.842Z,5.00
2022-11-05T16:04:34.319Z,4.67
2022-11-05T16:07:07.867Z,5.28
2022-11-05T16:09:40.376Z,6.82
2022-11-05T16:12:19.904Z,6.82
2022-11-05T16:14:59.441Z,7.70
2022-11-05T16:17:29.541Z,5.60
2022-11-05T16:19:57.376Z,9.02
2022-11-05T16:22:24.806Z,6.63
2022-11-05T16:24:52.459Z,7.25
2022-11-05T16:27:21.391Z,6.95
2022-11-05T16:29:53.771Z,6.60
2022-11-05T16:32:29.867Z,5.63
2022-11-05T16:35:03.869Z,6.10
2022-11-05T16:37:39.891Z,6.03
2022-11-05T16:40:14.977Z,6.93
2022-11-05T16:42:42.599Z,7.10
2022-11-05T16:45:12.180Z,5.25
2022-11-05T16:47:39.691Z,9.55
2022-11-05T16:50:22.919Z,9.18
2022-11-05T16:52:51.089Z,9.00
2022-11-05T16:55:18.681Z,6.67
2022-11-05T16:57:49.394Z,6.60
2022-11-05T17:00:17.833Z,7.30
2022-11-05T17:02:45.594Z,8.32
2022-11-05T17:05:35.052Z,6.60
2022-11-05T17:08:03.681Z,13.00
2022-11-05T17:10:31.001Z,7.32
2022-11-05T17:12:58.787Z,6.45
2022-11-05T17:15:37.041Z,6.68
2022-11-05T17:18:04.960Z,6.68
2022-11-05T17:20:41.656Z,8.60
2022-11-05T17:23:10.715Z,8.95
2022-11-05T17:25:39.714Z,6.55
2022-11-05T17:28:07.215Z,6.35
2022-11-05T17:30:34.910Z,7.03
2022-11-05T17:33:03.337Z,5.77
2022-11-05T17:35:31.062Z,7.43
2022-11-05T17:37:58.628Z,6.32
2022-11-05T17:40:26.137Z,8.70
2022-11-05T17:42:53.758Z,7.85
2022-11-05T17:45:21.145Z,6.83
2022-11-05T17:47:49.006Z,5.97
2022-11-05T17:50:16.595Z,6.15
2022-11-05T17:52:44.119Z,6.10
2022-11-05T17:55:16.997Z,7.95
2022-11-05T17:57:48.574Z,6.37
2022-11-05T18:00:22.788Z,6.85
2022-11-05T18:02:51.864Z,7.00
2022-11-05T18:05:19.413Z,7.40
2022-11-05T18:07:47.386Z,5.57
2022-11-05T18:10:14.933Z,6.40
2022-11-05T18:12:42.828Z,6.88
2022-11-05T18:15:10.409Z,7.13
2022-11-05T18:17:38.395Z,7.22
2022-11-05T18:20:11.649Z,9.68
2022-11-05T18:22:41.963Z,7.57
2022-11-05T18:25:11.084Z,6.05
2022-11-05T18:27:40.351Z,6.38
2022-11-05T18:30:09.049Z,6.68
2022-11-05T18:32:36.828Z,7.18
2022-11-05T18:35:04.581Z,5.83
2022-11-05T18:37:32.181Z,7.55
2022-11-05T18:39:59.698Z,7.15
2022-11-05T18:42:27.204Z,6.30
2022-11-05T18:44:54.771Z,5.80
2022-11-05T18:47:22.408Z,6.00
2022-11-05T18:49:49.828Z,7.05
2022-11-05T18:52:17.418Z,6.93
2022-11-05T18:54:45.074Z,9.18
2022-11-05T18:57:12.605Z,5.90
2022-11-05T18:59:42.278Z,6.07
2022-11-05T19:02:11.185Z,7.38
2022-11-05T19:04:39.008Z,6.47
2022-11-05T19:07:06.870Z,6.68
2022-11-05T19:09:34.766Z,7.15
2022-11-05T19:12:02.608Z,8.90
2022-11-05T19:14:31.799Z,6.18
2022-11-05T19:16:59.558Z,7.13
2022-11-05T19:19:27.185Z,6.20
2022-11-05T19:21:54.747Z,5.55
2022-11-05T19:24:22.050Z,7.63
2022-11-05T19:26:49.606Z,5.72
2022-11-05T19:29:17.018Z,6.65
2022-11-05T19:31:44.748Z,7.18
2022-11-05T19:34:13.564Z,7.20
2022-11-05T19:36:41.585Z,7.03
2022-11-05T19:39:10.095Z,6.57
2022-11-05T19:41:37.704Z,6.82
2022-11-05T19:44:05.206Z,6.78
2022-11-05T19:46:32.949Z,7.53
2022-11-05T19:49:01.208Z,10.30
2022-11-05T19:51:30.240Z,10.85
2022-11-05T19:54:00.049Z,7.90
2022-11-05T19:56:32.261Z,6.85
2022-11-05T19:59:00.107Z,6.28
2022-11-05T20:01:28.499Z,7.07
2022-11-05T20:03:57.089Z,7.93
2022-11-05T20:06:28.863Z,7.65
2022-11-05T20:09:20.538Z,7.32
2022-11-05T20:11:45.474Z,6.32
2022-11-05T20:14:13.084Z,10.20
2022-11-05T20:16:41.554Z,7.90
2022-11-05T20:19:11.381Z,7.60
2022-11-05T20:21:38.945Z,9.32
2022-11-05T20:24:06.909Z,9.20
2022-11-05T20:26:34.518Z,5.97
2022-11-05T20:29:01.956Z,8.15
2022-11-05T20:31:29.498Z,7.28
2022-11-05T20:33:57.266Z,7.80
2022-11-05T20:36:25.358Z,6.63
2022-11-05T20:38:58.296Z,8.50
2022-11-05T20:41:26.280Z,10.65
2022-11-05T20:43:53.939Z,8.38
2022-11-05T20:46:22.095Z,7.35
2022-11-05T20:48:49.605Z,8.43
2022-11-05T20:51:19.106Z,12.30
2022-11-05T20:53:46.748Z,8.90
2022-11-05T20:56:19.101Z,9.10
2022-11-05T20:58:47.518Z,10.30
2022-11-05T21:01:16.858Z,8.55
2022-11-05T21:03:45.042Z,11.60
2022-11-05T21:06:12.776Z,8.27
2022-11-05T21:08:40.405Z,7.55
2022-11-05T21:11:08.173Z,7.13
2022-11-05T21:13:36.047Z,9.25
2022-11-05T21:16:05.251Z,10.07
2022-11-05T21:18:33.541Z,9.05
2022-11-05T21:21:04.235Z,7.05
2022-11-05T21:23:31.732Z,7.00
2022-11-05T21:25:59.113Z,9.27
2022-11-05T21:28:26.901Z,6.73
2022-11-05T21:30:54.683Z,6.45
2022-11-05T21:33:22.097Z,8.38
2022-11-05T21:35:49.618Z,9.27
2022-11-05T21:38:17.394Z,8.32
2022-11-05T21:40:45.201Z,9.53
2022-11-05T21:43:13.232Z,8.10
2022-11-05T21:45:41.882Z,6.38
2022-11-05T21:48:09.790Z,7.53
2022-11-05T21:50:59.887Z,7.05
2022-11-05T21:53:46.222Z,8.37
2022-11-05T21:56:36.490Z,9.30
2022-11-05T21:59:22.836Z,9.13
2022-11-05T22:01:50.640Z,7.93
2022-11-05T22:04:18.121Z,8.88
2022-11-05T22:06:45.708Z,7.68
2022-11-05T22:09:13.274Z,10.95
2022-11-05T22:11:40.822Z,6.77
2022-11-05T22:14:08.443Z,6.07
2022-11-05T22:16:35.995Z,6.57
2022-11-05T22:19:03.675Z,6.53
2022-11-05T22:21:31.148Z,6.93
2022-11-05T22:23:58.448Z,7.40
2022-11-05T22:26:26.044Z,8.23
2022-11-05T22:28:54.822Z,9.27
2022-11-05T22:31:22.633Z,9.77
2022-11-05T22:33:50.233Z,7.43
2022-11-05T22:36:17.705Z,12.30
2022-11-05T22:38:45.165Z,6.72
2022-11-05T22:41:14.618Z,9.05
2022-11-05T22:43:42.734Z,8.50
2022-11-05T22:46:12.876Z,5.65
2022-11-05T22:48:40.707Z,7.57
2022-11-05T22:51:09.668Z,8.40
2022-11-05T22:53:37.359Z,6.72
2022-11-05T22:56:05.691Z,6.75
2022-11-05T22:58:33.328Z,9.32
2022-11-05T23:01:00.839Z,9.60
2022-11-05T23:03:29.271Z,9.93
2022-11-05T23:05:58.452Z,7.65
2022-11-05T23:08:44.554Z,8.02
2022-11-05T23:11:38.846Z,8.05
2022-11-05T23:14:11.169Z,9.07
2022-11-05T23:16:57.250Z,6.95
2022-11-05T23:19:43.166Z,9.70
2022-11-05T23:22:39.981Z,9.65
2022-11-05T23:25:09.282Z,7.38
2022-11-05T23:27:37.670Z,7.47
2022-11-05T23:30:16.460Z,7.32
2022-11-05T23:32:44.165Z,10.07
2022-11-05T23:35:11.702Z,6.68
2022-11-05T23:37:57.633Z,8.05
2022-11-05T23:40:26.710Z,7.50
2022-11-05T23:43:13.108Z,9.93
2022-11-05T23:45:47.877Z,7.22
2022-11-05T23:48:18.928Z,7.78
2022-11-05T23:50:56.278Z,8.23
2022-11-05T23:53:23.825Z,11.87
2022-11-05T23:55:51.204Z,8.20
2022-11-05T23:58:19.178Z,7.80
